Archival Weather

Republic

Farmingdale, New York (KFRG)

Report from: Saturday, January 27, 2024 1:53 PM EST
Current time: Monday, June 17, 2024 3:58 AM EDT

Current weather – Weather history – Daily summaries
Weather forecast

Temperature7.2°C (45.0°F)
Wind chill5.9°C (42.6°F)
Dew point2.2°C (36.0°F)
Winds 4 kts (2.1 m/s, 4.6 mph) North-Northeast (20°)
Visibility10 mi. (16.1 km)
Clouds Ceiling: Overcast 2,700 ft. (823 m)
Altimeter30.21 in.Hg (1023 mB)
Relative humidity71 %
Density altitude-1,165 ft. (-355 m)
Sea-level pressure102.3 kPa (1023 mB, 30.21 in.Hg)
Remarks Automated weather observing station without precipitation discriminator
Flight conditions Marginal Visual Meteorological Conditions
Raw dataKFRG 271853Z 02004KT 10SM OVC027 07/02 A3021 RMK AO1 SLP231 T00720022
An error has occurred. This application may no longer respond until reloaded. Reload 🗙